Time;durP1;ratioP1;P1;durP2;ratioP2;P2;SDS_P1;SDS_P2;PMS_P1;PMS_P2;Temp;Humidity;BMP_temperature;BMP_pressure;BME280_temperature;BME280_humidity;BME280_pressure;Samples;Min_cycle;Max_cycle;Signal;HPM_P1;HPM_P2
2021/09/12 00:01:08;;;;;;;27.25;24.48;;;;;;;;;;4964109;28;20419;-82
2021/09/12 00:03:35;;;;;;;27.10;24.25;;;;;;;;;;4963556;28;20414;-83
2021/09/12 00:06:02;;;;;;;27.57;24.63;;;;;;;;;;4963551;28;20438;-83
2021/09/12 00:08:29;;;;;;;28.60;25.60;;;;;;;;;;4966661;28;20491;-83
2021/09/12 00:10:56;;;;;;;28.93;25.97;;;;;;;;;;4961845;28;20414;-84
2021/09/12 00:13:23;;;;;;;28.33;25.27;;;;;;;;;;4966706;28;20414;-85
2021/09/12 00:15:50;;;;;;;27.90;25.10;;;;;;;;;;4976713;28;20422;-84
2021/09/12 00:18:19;;;;;;;28.27;25.38;;;;;;;;;;4972876;28;20470;-85
2021/09/12 00:20:45;;;;;;;28.75;25.75;;;;;;;;;;4974633;28;20422;-84
2021/09/12 00:23:12;;;;;;;28.88;25.77;;;;;;;;;;4964848;28;20680;-85
2021/09/12 00:25:40;;;;;;;30.10;26.15;;;;;;;;;;4965329;28;20501;-85
2021/09/12 00:28:07;;;;;;;28.77;25.67;;;;;;;;;;4959732;28;20800;-84
2021/09/12 00:30:34;;;;;;;28.88;25.77;;;;;;;;;;4963992;28;20426;-85
2021/09/12 00:33:01;;;;;;;28.43;25.43;;;;;;;;;;4965551;28;20424;-85
2021/09/12 00:35:29;;;;;;;29.70;26.52;;;;;;;;;;4964346;28;20406;-85
2021/09/12 00:37:56;;;;;;;27.45;24.75;;;;;;;;;;4965974;28;20438;-85
2021/09/12 00:40:24;;;;;;;27.73;24.80;;;;;;;;;;4963350;28;20415;-85
2021/09/12 00:42:51;;;;;;;28.57;25.67;;;;;;;;;;4959816;28;20475;-85
2021/09/12 00:45:20;;;;;;;28.48;24.50;;;;;;;;;;4959472;28;20419;-85
2021/09/12 00:47:48;;;;;;;27.95;25.05;;;;;;;;;;4963525;28;20744;-84
2021/09/12 00:50:15;;;;;;;28.00;25.05;;;;;;;;;;4959463;28;20830;-85
2021/09/12 00:52:45;;;;;;;27.92;25.02;;;;;;;;;;4960352;28;20475;-84
2021/09/12 00:55:14;;;;;;;29.33;25.13;;;;;;;;;;4960630;28;20422;-84
2021/09/12 00:57:43;;;;;;;27.55;24.73;;;;;;;;;;4962303;28;20490;-84
2021/09/12 01:00:11;;;;;;;26.98;24.27;;;;;;;;;;4964121;28;20420;-84
2021/09/12 01:02:38;;;;;;;27.48;24.65;;;;;;;;;;4962392;28;20435;-85
2021/09/12 01:05:06;;;;;;;26.45;23.65;;;;;;;;;;4963409;28;20516;-84
2021/09/12 01:07:33;;;;;;;27.33;24.42;;;;;;;;;;4963226;28;20422;-84
2021/09/12 01:10:03;;;;;;;27.75;24.83;;;;;;;;;;4962180;28;20421;-85
2021/09/12 01:12:31;;;;;;;26.50;23.88;;;;;;;;;;4961970;28;20410;-84
2021/09/12 01:14:58;;;;;;;27.98;24.88;;;;;;;;;;4962580;28;20402;-85
2021/09/12 01:17:28;;;;;;;27.20;24.30;;;;;;;;;;4961960;28;20413;-84
2021/09/12 01:19:55;;;;;;;28.75;25.75;;;;;;;;;;4962930;28;20406;-84
2021/09/12 01:22:22;;;;;;;27.75;24.75;;;;;;;;;;4962733;28;20419;-84
2021/09/12 01:24:50;;;;;;;27.13;24.40;;;;;;;;;;4960902;28;20909;-84
2021/09/12 01:27:17;;;;;;;27.30;24.60;;;;;;;;;;4960207;28;20813;-84
2021/09/12 01:29:44;;;;;;;26.67;24.00;;;;;;;;;;4964891;28;20736;-84
2021/09/12 01:32:12;;;;;;;27.75;24.25;;;;;;;;;;4964070;28;20956;-84
2021/09/12 01:34:39;;;;;;;27.13;24.27;;;;;;;;;;4964869;28;20411;-84
2021/09/12 01:37:06;;;;;;;26.70;23.83;;;;;;;;;;4962893;28;20414;-84
2021/09/12 01:39:33;;;;;;;27.35;24.75;;;;;;;;;;4964431;28;20644;-84
2021/09/12 01:42:01;;;;;;;27.00;24.25;;;;;;;;;;4960884;28;20410;-84
2021/09/12 01:44:28;;;;;;;27.20;24.42;;;;;;;;;;4957448;28;20418;-85
2021/09/12 01:46:55;;;;;;;26.70;23.90;;;;;;;;;;4964694;28;20501;-85
2021/09/12 01:49:23;;;;;;;27.05;24.38;;;;;;;;;;4963837;28;20455;-85
2021/09/12 01:51:50;;;;;;;28.07;25.20;;;;;;;;;;4962266;28;20484;-85
2021/09/12 01:54:17;;;;;;;27.65;24.92;;;;;;;;;;4962360;28;20427;-85
2021/09/12 01:56:44;;;;;;;26.70;24.00;;;;;;;;;;4963229;28;20819;-85
2021/09/12 01:59:12;;;;;;;27.75;24.88;;;;;;;;;;4959747;28;20495;-85
2021/09/12 02:01:39;;;;;;;27.92;24.98;;;;;;;;;;4965063;28;20462;-84
2021/09/12 02:04:06;;;;;;;28.92;25.75;;;;;;;;;;4966290;28;20606;-84
2021/09/12 02:06:33;;;;;;;29.30;26.40;;;;;;;;;;4963792;28;20430;-84
2021/09/12 02:09:00;;;;;;;29.60;26.40;;;;;;;;;;4964982;28;20406;-84
2021/09/12 02:11:26;;;;;;;28.33;25.53;;;;;;;;;;4966750;28;20410;-84
2021/09/12 02:13:54;;;;;;;28.03;25.20;;;;;;;;;;4965847;28;20410;-84
2021/09/12 02:16:22;;;;;;;28.70;25.80;;;;;;;;;;4964228;28;20813;-85
2021/09/12 02:18:49;;;;;;;28.48;25.50;;;;;;;;;;4966598;28;20410;-85
2021/09/12 02:21:16;;;;;;;28.38;25.50;;;;;;;;;;4966106;28;20740;-84
2021/09/12 02:23:43;;;;;;;29.42;26.48;;;;;;;;;;4966302;28;20406;-85
2021/09/12 02:26:10;;;;;;;28.73;25.80;;;;;;;;;;4965505;28;20433;-84
2021/09/12 02:28:37;;;;;;;29.17;26.23;;;;;;;;;;4967375;28;20410;-84
2021/09/12 02:31:04;;;;;;;29.90;26.65;;;;;;;;;;4968108;28;20417;-85
2021/09/12 02:33:32;;;;;;;29.42;26.25;;;;;;;;;;4965081;28;20744;-85
2021/09/12 02:35:59;;;;;;;28.77;25.97;;;;;;;;;;4966582;28;20425;-84
2021/09/12 02:38:26;;;;;;;27.88;25.05;;;;;;;;;;4966252;28;20782;-85
2021/09/12 02:40:52;;;;;;;29.30;26.23;;;;;;;;;;4967181;28;20402;-84
2021/09/12 02:43:19;;;;;;;28.97;26.00;;;;;;;;;;4965771;28;20427;-85
2021/09/12 02:45:46;;;;;;;27.03;24.43;;;;;;;;;;4967459;28;20418;-84
2021/09/12 02:48:13;;;;;;;28.80;25.80;;;;;;;;;;4966372;28;20544;-84
2021/09/12 02:50:41;;;;;;;27.83;25.10;;;;;;;;;;4967707;28;20418;-84
2021/09/12 02:53:08;;;;;;;28.30;25.63;;;;;;;;;;4967665;28;20417;-85
2021/09/12 02:55:35;;;;;;;27.48;24.75;;;;;;;;;;4964627;28;20441;-85
2021/09/12 02:58:01;;;;;;;27.45;24.55;;;;;;;;;;4966025;28;20437;-85
2021/09/12 03:00:28;;;;;;;27.25;24.35;;;;;;;;;;4971707;28;21368;-84
2021/09/12 03:02:56;;;;;;;27.90;24.90;;;;;;;;;;4967211;28;20420;-84
2021/09/12 03:05:23;;;;;;;27.52;24.65;;;;;;;;;;4967976;28;20415;-84
2021/09/12 03:07:51;;;;;;;26.98;24.27;;;;;;;;;;4964845;28;20434;-84
2021/09/12 03:10:18;;;;;;;26.87;24.27;;;;;;;;;;4968399;28;20503;-84
2021/09/12 03:12:45;;;;;;;26.30;23.57;;;;;;;;;;4964956;28;20843;-85
2021/09/12 03:15:12;;;;;;;26.00;23.40;;;;;;;;;;4967229;28;20438;-84
2021/09/12 03:17:39;;;;;;;26.33;23.03;;;;;;;;;;4968732;28;20414;-85
2021/09/12 03:20:07;;;;;;;25.30;22.90;;;;;;;;;;4968539;28;20418;-84
2021/09/12 03:22:34;;;;;;;26.07;23.43;;;;;;;;;;4967286;28;20407;-84
2021/09/12 03:25:02;;;;;;;24.75;22.17;;;;;;;;;;4968965;28;20913;-85
2021/09/12 03:27:29;;;;;;;25.73;23.02;;;;;;;;;;4970102;28;20430;-85
2021/09/12 03:29:56;;;;;;;25.63;22.92;;;;;;;;;;4970251;28;20414;-85
2021/09/12 03:32:23;;;;;;;23.95;21.58;;;;;;;;;;4973716;28;20406;-84
2021/09/12 03:34:50;;;;;;;23.98;21.65;;;;;;;;;;4962144;28;20407;-84
2021/09/12 03:37:17;;;;;;;23.85;21.35;;;;;;;;;;4962117;28;20436;-85
2021/09/12 03:39:44;;;;;;;24.85;22.27;;;;;;;;;;4962366;28;20421;-84
2021/09/12 03:42:12;;;;;;;24.58;22.08;;;;;;;;;;4968002;28;20398;-84
2021/09/12 03:44:39;;;;;;;25.57;23.07;;;;;;;;;;4968206;28;20514;-84
2021/09/12 03:47:06;;;;;;;25.47;22.83;;;;;;;;;;4967483;28;20429;-85
2021/09/12 03:49:32;;;;;;;24.83;22.23;;;;;;;;;;4966836;28;20410;-84
2021/09/12 03:51:59;;;;;;;28.57;22.40;;;;;;;;;;4968647;28;20411;-84
2021/09/12 03:54:26;;;;;;;24.42;22.02;;;;;;;;;;4969848;28;20962;-84
2021/09/12 03:56:53;;;;;;;24.35;21.85;;;;;;;;;;4974275;28;20399;-84
2021/09/12 03:59:21;;;;;;;24.13;21.73;;;;;;;;;;4989768;28;20722;-84
2021/09/12 04:01:48;;;;;;;24.17;21.77;;;;;;;;;;4985711;28;20481;-84
2021/09/12 04:04:15;;;;;;;22.83;20.50;;;;;;;;;;4975192;28;20422;-84
2021/09/12 04:06:41;;;;;;;23.42;20.88;;;;;;;;;;4965549;28;20430;-84
2021/09/12 04:09:08;;;;;;;22.05;19.80;;;;;;;;;;4964591;28;21009;-84
2021/09/12 04:11:35;;;;;;;22.40;20.08;;;;;;;;;;4963894;28;20410;-84
2021/09/12 04:14:02;;;;;;;22.30;19.95;;;;;;;;;;4962313;28;20468;-85
2021/09/12 04:16:30;;;;;;;21.25;19.20;;;;;;;;;;4964758;28;20914;-85
2021/09/12 04:18:57;;;;;;;22.30;19.92;;;;;;;;;;4961738;28;20578;-85
2021/09/12 04:21:24;;;;;;;22.00;19.73;;;;;;;;;;4964561;28;20433;-84
2021/09/12 04:23:51;;;;;;;21.75;19.65;;;;;;;;;;4965562;28;20406;-84
2021/09/12 04:26:18;;;;;;;21.70;19.60;;;;;;;;;;4967432;28;20403;-84
2021/09/12 04:28:45;;;;;;;22.50;20.20;;;;;;;;;;4965206;28;20433;-85
2021/09/12 04:31:12;;;;;;;22.45;20.13;;;;;;;;;;4966757;28;20414;-84
2021/09/12 04:33:40;;;;;;;22.25;20.05;;;;;;;;;;4965620;28;20887;-84
2021/09/12 04:36:06;;;;;;;21.80;19.53;;;;;;;;;;4966701;28;20828;-84
2021/09/12 04:38:33;;;;;;;21.53;19.37;;;;;;;;;;4965522;28;20422;-84
2021/09/12 04:41:00;;;;;;;22.00;19.80;;;;;;;;;;4966211;28;20778;-85
2021/09/12 04:43:27;;;;;;;21.57;19.40;;;;;;;;;;4965716;28;20415;-84
2021/09/12 04:45:54;;;;;;;21.67;19.47;;;;;;;;;;4960070;28;20420;-85
2021/09/12 04:48:21;;;;;;;20.90;18.90;;;;;;;;;;4965806;28;20426;-85
2021/09/12 04:50:49;;;;;;;21.43;19.23;;;;;;;;;;4965531;28;20410;-84
2021/09/12 04:53:16;;;;;;;21.67;19.38;;;;;;;;;;4966051;28;20418;-84
2021/09/12 04:55:42;;;;;;;23.15;19.60;;;;;;;;;;4964774;28;20411;-84
2021/09/12 04:58:09;;;;;;;20.30;18.42;;;;;;;;;;4966085;28;20553;-85
2021/09/12 05:00:37;;;;;;;21.42;19.33;;;;;;;;;;4963312;28;20917;-84
2021/09/12 05:03:03;;;;;;;21.27;19.25;;;;;;;;;;4963744;28;20411;-84
2021/09/12 05:05:30;;;;;;;22.02;19.83;;;;;;;;;;4967876;28;20416;-84
2021/09/12 05:07:59;;;;;;;21.15;19.05;;;;;;;;;;4965716;28;20430;-84
2021/09/12 05:10:25;;;;;;;21.20;19.08;;;;;;;;;;4961989;28;20402;-84
2021/09/12 05:12:52;;;;;;;21.73;19.50;;;;;;;;;;4961804;28;20879;-84
2021/09/12 05:15:19;;;;;;;21.25;19.15;;;;;;;;;;4965335;28;20406;-84
2021/09/12 05:17:46;;;;;;;20.45;18.27;;;;;;;;;;4962473;28;20423;-84
2021/09/12 05:20:13;;;;;;;20.45;18.35;;;;;;;;;;4963779;28;20790;-85
2021/09/12 05:22:40;;;;;;;19.83;17.98;;;;;;;;;;4963638;28;20677;-84
2021/09/12 05:25:10;;;;;;;19.92;17.95;;;;;;;;;;4965225;28;20451;-84
2021/09/12 05:27:37;;;;;;;19.65;17.80;;;;;;;;;;4965414;28;20477;-85
2021/09/12 05:30:04;;;;;;;19.77;17.88;;;;;;;;;;4963435;28;20435;-84
2021/09/12 05:32:31;;;;;;;19.42;17.50;;;;;;;;;;4965105;28;20413;-84
2021/09/12 05:34:58;;;;;;;20.10;18.08;;;;;;;;;;4962352;28;20417;-84
2021/09/12 05:37:25;;;;;;;18.77;16.88;;;;;;;;;;4963575;28;20414;-84
2021/09/12 05:39:52;;;;;;;19.30;17.30;;;;;;;;;;4963637;28;20410;-84
2021/09/12 05:42:20;;;;;;;18.38;16.58;;;;;;;;;;4963227;28;20819;-85
2021/09/12 05:44:47;;;;;;;18.70;16.70;;;;;;;;;;4963485;28;20447;-85
2021/09/12 05:47:14;;;;;;;18.67;16.77;;;;;;;;;;4963625;28;20436;-85
2021/09/12 05:49:40;;;;;;;18.35;16.65;;;;;;;;;;4964142;28;20411;-84
2021/09/12 05:52:07;;;;;;;18.50;16.70;;;;;;;;;;4961050;28;20766;-84
2021/09/12 05:54:34;;;;;;;18.52;16.65;;;;;;;;;;4958951;28;20417;-84
2021/09/12 05:57:01;;;;;;;18.60;16.65;;;;;;;;;;4963221;28;20429;-85
2021/09/12 05:59:29;;;;;;;17.90;16.10;;;;;;;;;;4962507;28;20418;-85
2021/09/12 06:01:56;;;;;;;17.75;16.02;;;;;;;;;;4963618;28;20421;-84
2021/09/12 06:04:23;;;;;;;16.83;15.07;;;;;;;;;;4960278;28;20501;-85
2021/09/12 06:06:50;;;;;;;15.95;14.48;;;;;;;;;;4965823;28;20422;-85
2021/09/12 06:09:16;;;;;;;16.92;15.13;;;;;;;;;;4963563;28;20959;-84
2021/09/12 06:11:46;;;;;;;17.20;14.98;;;;;;;;;;4963494;28;20410;-79
2021/09/12 06:14:13;;;;;;;17.77;15.25;;;;;;;;;;4962031;28;20402;-85
2021/09/12 06:16:41;;;;;;;15.77;14.23;;;;;;;;;;4961102;28;20427;-85
2021/09/12 06:19:08;;;;;;;16.00;14.50;;;;;;;;;;4961418;28;20422;-85
2021/09/12 06:21:35;;;;;;;16.55;14.55;;;;;;;;;;4963426;28;20429;-86
2021/09/12 06:24:02;;;;;;;15.75;14.10;;;;;;;;;;4964661;28;20422;-78
2021/09/12 06:26:29;;;;;;;15.27;13.70;;;;;;;;;;4964135;28;20414;-89
2021/09/12 06:28:56;;;;;;;15.60;14.00;;;;;;;;;;4965829;28;20846;-88
2021/09/12 06:31:24;;;;;;;14.93;13.43;;;;;;;;;;4965168;28;20410;-83
2021/09/12 06:33:52;;;;;;;13.95;12.65;;;;;;;;;;4962486;28;20690;-80
2021/09/12 06:36:19;;;;;;;15.00;12.52;;;;;;;;;;4963710;28;20875;-81
2021/09/12 06:38:48;;;;;;;12.88;11.65;;;;;;;;;;4962342;28;20427;-81
2021/09/12 06:41:15;;;;;;;49.27;18.20;;;;;;;;;;4965745;28;20409;-80
2021/09/12 06:43:42;;;;;;;12.68;11.43;;;;;;;;;;4961453;28;20408;-80
2021/09/12 06:46:08;;;;;;;15.77;11.70;;;;;;;;;;4961625;28;20751;-80
2021/09/12 06:48:35;;;;;;;13.57;11.40;;;;;;;;;;4963462;28;20430;-82
2021/09/12 06:51:03;;;;;;;13.00;11.70;;;;;;;;;;4964150;28;20410;-83
2021/09/12 06:53:30;;;;;;;15.43;11.85;;;;;;;;;;4964969;28;20814;-84
2021/09/12 06:55:57;;;;;;;11.73;10.63;;;;;;;;;;4958984;28;20415;-84
2021/09/12 06:58:24;;;;;;;11.65;10.65;;;;;;;;;;4965220;28;20706;-84
2021/09/12 07:00:51;;;;;;;11.57;10.57;;;;;;;;;;4965281;28;20411;-83
2021/09/12 07:03:17;;;;;;;11.73;10.63;;;;;;;;;;4964581;28;20819;-78
2021/09/12 07:05:44;;;;;;;13.70;10.70;;;;;;;;;;4969769;28;20408;-83
2021/09/12 07:08:12;;;;;;;11.87;10.77;;;;;;;;;;4968370;28;20938;-83
2021/09/12 07:10:39;;;;;;;12.07;10.98;;;;;;;;;;4960852;28;20414;-83
2021/09/12 07:13:06;;;;;;;12.63;11.32;;;;;;;;;;4964162;28;20406;-85
2021/09/12 07:15:33;;;;;;;12.20;10.95;;;;;;;;;;4966539;28;20407;-85
2021/09/12 07:18:00;;;;;;;12.82;11.50;;;;;;;;;;4965074;28;20500;-85
2021/09/12 07:20:27;;;;;;;12.30;11.00;;;;;;;;;;4961250;28;20420;-85
2021/09/12 07:22:53;;;;;;;12.32;11.18;;;;;;;;;;4966769;28;20417;-85
2021/09/12 07:25:22;;;;;;;12.45;11.10;;;;;;;;;;4960785;28;20417;-85
2021/09/12 07:27:49;;;;;;;12.25;11.05;;;;;;;;;;4969545;28;20422;-85
2021/09/12 07:30:16;;;;;;;12.60;11.23;;;;;;;;;;4964795;28;20409;-88
2021/09/12 07:32:43;;;;;;;12.38;11.07;;;;;;;;;;4963242;28;20423;-86
2021/09/12 07:35:12;;;;;;;11.80;10.60;;;;;;;;;;4969182;28;20889;-85
2021/09/12 07:37:39;;;;;;;13.45;10.98;;;;;;;;;;4967601;28;20418;-85
2021/09/12 07:40:07;;;;;;;11.68;10.48;;;;;;;;;;4965651;28;20417;-85
2021/09/12 07:42:35;;;;;;;13.52;11.20;;;;;;;;;;4962256;28;20425;-85
2021/09/12 07:45:02;;;;;;;13.68;12.15;;;;;;;;;;4964469;28;20841;-85
2021/09/12 07:47:29;;;;;;;12.40;11.15;;;;;;;;;;4962413;28;20953;-85
2021/09/12 07:49:56;;;;;;;11.98;10.88;;;;;;;;;;4967667;28;20426;-85
2021/09/12 07:52:23;;;;;;;12.50;11.30;;;;;;;;;;4968049;28;20426;-85
2021/09/12 07:54:50;;;;;;;11.48;10.38;;;;;;;;;;4989496;28;20398;-84
2021/09/12 07:57:17;;;;;;;12.23;10.93;;;;;;;;;;4989340;28;20416;-84
2021/09/12 07:59:45;;;;;;;11.18;10.07;;;;;;;;;;4974224;28;20403;-84
2021/09/12 08:02:12;;;;;;;10.25;9.25;;;;;;;;;;4963663;28;20414;-85
2021/09/12 08:04:39;;;;;;;9.80;8.75;;;;;;;;;;4966099;28;20423;-85
2021/09/12 08:07:06;;;;;;;10.43;9.40;;;;;;;;;;4965275;28;20415;-85
2021/09/12 08:09:33;;;;;;;10.52;9.18;;;;;;;;;;4966066;28;20429;-84
2021/09/12 08:12:00;;;;;;;9.65;8.75;;;;;;;;;;4966026;28;20891;-84
2021/09/12 08:14:26;;;;;;;9.13;8.23;;;;;;;;;;4964139;28;20406;-85
2021/09/12 08:16:54;;;;;;;8.82;7.93;;;;;;;;;;4965936;28;20421;-85
2021/09/12 08:19:21;;;;;;;9.05;8.23;;;;;;;;;;4964753;28;20580;-85
2021/09/12 08:21:48;;;;;;;9.05;8.15;;;;;;;;;;4965676;28;20406;-85
2021/09/12 08:24:15;;;;;;;11.65;7.95;;;;;;;;;;4963686;28;20434;-85
2021/09/12 08:26:42;;;;;;;10.15;8.50;;;;;;;;;;4963208;28;20592;-85
2021/09/12 08:29:09;;;;;;;9.82;8.75;;;;;;;;;;4962486;28;20918;-85
2021/09/12 08:31:35;;;;;;;9.20;8.10;;;;;;;;;;4966396;28;20479;-85
2021/09/12 08:34:04;;;;;;;9.43;8.23;;;;;;;;;;4961596;28;20413;-85
2021/09/12 08:36:30;;;;;;;8.93;8.02;;;;;;;;;;4963784;28;20410;-85
2021/09/12 08:38:57;;;;;;;8.88;8.02;;;;;;;;;;4960793;28;20423;-85
2021/09/12 08:41:25;;;;;;;8.77;7.50;;;;;;;;;;4965447;28;20414;-85
2021/09/12 08:43:52;;;;;;;8.13;7.33;;;;;;;;;;4962679;28;20416;-85
2021/09/12 08:46:19;;;;;;;8.77;8.00;;;;;;;;;;4965243;28;20914;-85
2021/09/12 08:48:46;;;;;;;9.15;7.57;;;;;;;;;;4961237;28;20436;-85
2021/09/12 08:51:14;;;;;;;8.75;7.30;;;;;;;;;;4961990;28;20422;-85
2021/09/12 08:53:41;;;;;;;8.10;7.30;;;;;;;;;;4964715;28;20417;-85
2021/09/12 08:56:08;;;;;;;7.47;6.68;;;;;;;;;;4961673;28;20795;-86
2021/09/12 08:58:35;;;;;;;6.50;5.90;;;;;;;;;;4965776;28;20418;-85
2021/09/12 09:01:02;;;;;;;8.52;6.10;;;;;;;;;;4964327;28;20402;-85
2021/09/12 09:03:35;;;;;;;7.40;6.50;;;;;;;;;;4963575;28;20418;-84
2021/09/12 09:06:12;;;;;;;7.75;6.25;;;;;;;;;;4961606;28;20434;-85
2021/09/12 09:08:51;;;;;;;6.93;6.13;;;;;;;;;;4962595;28;20906;-85
2021/09/12 09:11:29;;;;;;;6.50;5.53;;;;;;;;;;4965695;28;20427;-85
2021/09/12 09:13:56;;;;;;;6.20;5.60;;;;;;;;;;4963704;28;20421;-85
2021/09/12 09:16:28;;;;;;;6.30;5.40;;;;;;;;;;4961422;28;20480;-85
2021/09/12 09:19:03;;;;;;;5.93;5.43;;;;;;;;;;4964448;28;20913;-85
2021/09/12 09:21:32;;;;;;;6.88;5.30;;;;;;;;;;4963378;28;20843;-85
2021/09/12 09:24:13;;;;;;;8.75;6.20;;;;;;;;;;4964016;28;20482;-84
2021/09/12 09:26:43;;;;;;;6.45;5.78;;;;;;;;;;4963905;28;20799;-85
2021/09/12 09:29:11;;;;;;;6.22;5.50;;;;;;;;;;4964812;28;20421;-85
2021/09/12 09:31:38;;;;;;;6.60;5.80;;;;;;;;;;4964679;28;20441;-85
2021/09/12 09:34:18;;;;;;;6.78;6.07;;;;;;;;;;4961881;28;20434;-85
2021/09/12 09:36:45;;;;;;;7.72;6.10;;;;;;;;;;4963154;28;20398;-85
2021/09/12 09:39:15;;;;;;;6.37;5.63;;;;;;;;;;4960407;28;20410;-85
2021/09/12 09:41:42;;;;;;;11.18;9.10;;;;;;;;;;4963692;28;20402;-85
2021/09/12 09:44:11;;;;;;;7.15;5.00;;;;;;;;;;4953045;28;20419;-85
2021/09/12 09:46:39;;;;;;;5.93;4.95;;;;;;;;;;4963240;28;21595;-85
2021/09/12 09:49:25;;;;;;;4.97;4.47;;;;;;;;;;4962398;28;20430;-85
2021/09/12 09:51:53;;;;;;;11.30;4.88;;;;;;;;;;4960161;28;20450;-82
2021/09/12 09:54:23;;;;;;;5.28;4.32;;;;;;;;;;4962967;28;20408;-83
2021/09/12 09:56:50;;;;;;;5.45;4.55;;;;;;;;;;4956268;28;20421;-82
2021/09/12 09:59:19;;;;;;;5.95;4.32;;;;;;;;;;4965091;28;20421;-82
2021/09/12 10:01:49;;;;;;;6.07;4.95;;;;;;;;;;4964510;28;20406;-83
2021/09/12 10:04:17;;;;;;;5.72;5.00;;;;;;;;;;4960060;28;20415;-82
2021/09/12 10:06:44;;;;;;;6.75;4.82;;;;;;;;;;4960458;28;20404;-82
2021/09/12 10:09:15;;;;;;;8.32;5.38;;;;;;;;;;4962266;28;20436;-92
2021/09/12 10:11:47;;;;;;;5.43;4.93;;;;;;;;;;4964016;28;20425;-86
2021/09/12 10:14:19;;;;;;;6.93;4.85;;;;;;;;;;4961261;28;21114;-82
2021/09/12 10:16:48;;;;;;;5.85;4.93;;;;;;;;;;4963485;28;20980;-82
2021/09/12 10:19:37;;;;;;;5.53;4.90;;;;;;;;;;4961244;28;20433;-82
2021/09/12 10:22:11;;;;;;;7.10;4.97;;;;;;;;;;4961158;28;20406;-82
2021/09/12 10:25:10;;;;;;;6.25;4.80;;;;;;;;;;4964996;28;20430;-86
2021/09/12 10:27:40;;;;;;;5.30;4.80;;;;;;;;;;4964742;28;20434;-85
2021/09/12 10:30:23;;;;;;;5.53;5.03;;;;;;;;;;4961359;28;20436;-86
2021/09/12 10:32:51;;;;;;;5.45;4.90;;;;;;;;;;4967196;28;20430;-85
2021/09/12 10:35:21;;;;;;;7.78;5.50;;;;;;;;;;4969059;28;20418;-86
2021/09/12 10:38:02;;;;;;;6.65;4.60;;;;;;;;;;4964216;28;20430;-87
2021/09/12 10:41:06;;;;;;;5.72;4.88;;;;;;;;;;4960899;28;20990;-88
2021/09/12 10:43:49;;;;;;;6.32;5.00;;;;;;;;;;4957477;28;20437;-80
2021/09/12 10:46:29;;;;;;;7.15;5.80;;;;;;;;;;4960244;28;20416;-80
2021/09/12 10:49:11;;;;;;;6.40;5.73;;;;;;;;;;4968237;28;20774;-81
2021/09/12 10:51:40;;;;;;;7.53;5.00;;;;;;;;;;4964577;28;20835;-85
2021/09/12 10:54:07;;;;;;;6.90;4.93;;;;;;;;;;4963122;28;20411;-85
2021/09/12 10:56:35;;;;;;;5.20;4.70;;;;;;;;;;4965143;28;20410;-83
2021/09/12 10:59:07;;;;;;;5.35;4.75;;;;;;;;;;4961119;28;21095;-83
2021/09/12 11:01:36;;;;;;;9.02;4.57;;;;;;;;;;4961038;28;20894;-86
2021/09/12 11:04:04;;;;;;;5.63;4.65;;;;;;;;;;4964908;28;20477;-82
2021/09/12 11:06:32;;;;;;;5.50;4.60;;;;;;;;;;4961676;28;20399;-83
2021/09/12 11:09:00;;;;;;;6.20;4.57;;;;;;;;;;4966004;28;20426;-85
2021/09/12 11:11:28;;;;;;;6.13;4.85;;;;;;;;;;4967516;28;20414;-86
2021/09/12 11:13:57;;;;;;;6.60;4.70;;;;;;;;;;4964781;28;20881;-85
2021/09/12 11:16:27;;;;;;;6.60;4.85;;;;;;;;;;4967260;28;20418;-85
2021/09/12 11:18:56;;;;;;;5.60;4.65;;;;;;;;;;4964780;28;20419;-85
2021/09/12 11:21:27;;;;;;;7.18;4.85;;;;;;;;;;4967901;28;20427;-86
2021/09/12 11:23:59;;;;;;;5.38;4.82;;;;;;;;;;4962662;28;20424;-86
2021/09/12 11:26:26;;;;;;;6.63;4.72;;;;;;;;;;4967659;28;20918;-86
2021/09/12 11:29:04;;;;;;;6.90;5.15;;;;;;;;;;4970798;28;20444;-86
2021/09/12 11:31:36;;;;;;;8.18;4.72;;;;;;;;;;4969005;28;21600;-86
2021/09/12 11:34:04;;;;;;;5.32;4.60;;;;;;;;;;4969661;28;20450;-86
2021/09/12 11:36:47;;;;;;;5.60;4.72;;;;;;;;;;4967462;28;20783;-86
2021/09/12 11:39:15;;;;;;;6.45;4.60;;;;;;;;;;4964666;28;20414;-86
2021/09/12 11:41:44;;;;;;;5.43;4.53;;;;;;;;;;4970272;28;20442;-86
2021/09/12 11:44:11;;;;;;;6.78;4.72;;;;;;;;;;4966080;28;20942;-86
2021/09/12 11:46:45;;;;;;;6.47;4.63;;;;;;;;;;4969147;28;20421;-86
2021/09/12 11:49:12;;;;;;;8.63;6.93;;;;;;;;;;4964724;28;20422;-86
2021/09/12 11:51:40;;;;;;;7.15;4.60;;;;;;;;;;4967442;28;20422;-86
2021/09/12 11:54:09;;;;;;;5.53;4.63;;;;;;;;;;4972989;28;20417;-86
2021/09/12 11:56:37;;;;;;;8.48;5.05;;;;;;;;;;4966810;28;20906;-86
2021/09/12 11:59:05;;;;;;;5.43;4.90;;;;;;;;;;4966683;28;20414;-85
2021/09/12 12:01:32;;;;;;;6.75;5.30;;;;;;;;;;4962515;28;20422;-85
2021/09/12 12:04:03;;;;;;;5.80;4.75;;;;;;;;;;4964345;28;20410;-84
2021/09/12 12:06:30;;;;;;;5.55;4.60;;;;;;;;;;4968881;28;20424;-84
2021/09/12 12:09:12;;;;;;;7.28;4.85;;;;;;;;;;4959899;28;20437;-83
2021/09/12 12:11:42;;;;;;;5.97;4.70;;;;;;;;;;4959604;28;20462;-85
2021/09/12 12:14:19;;;;;;;5.20;4.70;;;;;;;;;;4969683;28;20406;-85
2021/09/12 12:16:46;;;;;;;5.63;5.03;;;;;;;;;;4968658;28;20420;-84
2021/09/12 12:19:15;;;;;;;6.80;5.30;;;;;;;;;;4966284;28;20411;-85
2021/09/12 12:21:44;;;;;;;9.00;5.13;;;;;;;;;;4962112;28;20414;-87
2021/09/12 12:24:17;;;;;;;6.05;4.80;;;;;;;;;;4964429;28;20418;-85
2021/09/12 12:26:47;;;;;;;5.40;4.90;;;;;;;;;;4960837;28;20430;-86
2021/09/12 12:29:25;;;;;;;5.10;4.57;;;;;;;;;;4963724;28;20816;-85
2021/09/12 12:31:53;;;;;;;5.43;4.55;;;;;;;;;;4959324;28;20498;-84
2021/09/12 12:34:45;;;;;;;5.82;4.65;;;;;;;;;;4962052;28;20513;-84
2021/09/12 12:37:15;;;;;;;5.50;5.00;;;;;;;;;;4960636;28;20422;-84
2021/09/12 12:39:42;;;;;;;5.53;4.60;;;;;;;;;;4961812;28;21215;-84
2021/09/12 12:42:11;;;;;;;5.93;4.72;;;;;;;;;;4961546;28;20476;-84
2021/09/12 12:44:45;;;;;;;5.07;4.67;;;;;;;;;;4963343;28;20428;-84
2021/09/12 12:47:14;;;;;;;6.03;4.60;;;;;;;;;;4961332;28;20751;-84
2021/09/12 12:49:42;;;;;;;7.68;4.72;;;;;;;;;;4963605;28;20437;-84
2021/09/12 12:52:12;;;;;;;5.10;4.60;;;;;;;;;;4959893;28;20461;-83
2021/09/12 12:54:42;;;;;;;5.53;4.80;;;;;;;;;;4961194;28;20439;-85
2021/09/12 12:57:12;;;;;;;5.10;4.60;;;;;;;;;;4962731;28;20415;-83
2021/09/12 12:59:49;;;;;;;6.43;4.78;;;;;;;;;;4957536;28;20922;-84
2021/09/12 13:02:17;;;;;;;6.23;4.63;;;;;;;;;;4959015;28;20876;-84
2021/09/12 13:04:46;;;;;;;5.45;4.50;;;;;;;;;;4960529;28;20418;-83
2021/09/12 13:07:13;;;;;;;6.80;4.38;;;;;;;;;;4958608;28;20416;-85
2021/09/12 13:09:40;;;;;;;5.18;4.68;;;;;;;;;;4961169;28;20493;-83
2021/09/12 13:12:09;;;;;;;4.90;4.40;;;;;;;;;;4958644;28;20418;-85
2021/09/12 13:14:37;;;;;;;4.67;4.27;;;;;;;;;;4961039;28;20430;-83
2021/09/12 13:17:05;;;;;;;7.43;4.85;;;;;;;;;;4958288;28;20417;-85
2021/09/12 13:19:31;;;;;;;5.70;4.68;;;;;;;;;;4956082;28;20433;-84
2021/09/12 13:22:00;;;;;;;6.57;4.37;;;;;;;;;;4959962;28;20414;-83
2021/09/12 13:24:26;;;;;;;5.00;4.50;;;;;;;;;;4960484;28;20437;-85
2021/09/12 13:26:53;;;;;;;6.18;4.53;;;;;;;;;;4959088;28;20438;-83
2021/09/12 13:29:20;;;;;;;6.63;4.45;;;;;;;;;;4958478;28;20419;-84
2021/09/12 13:31:47;;;;;;;5.10;4.60;;;;;;;;;;4958512;28;20441;-84
2021/09/12 13:34:14;;;;;;;6.32;4.70;;;;;;;;;;4960277;28;20410;-85
2021/09/12 13:36:41;;;;;;;5.25;4.65;;;;;;;;;;4961009;28;20418;-83
2021/09/12 13:39:09;;;;;;;5.37;4.70;;;;;;;;;;4957346;28;20422;-84
2021/09/12 13:41:35;;;;;;;5.00;4.47;;;;;;;;;;4958375;28;20949;-84
2021/09/12 13:44:02;;;;;;;5.60;4.95;;;;;;;;;;4962090;28;20835;-83
2021/09/12 13:46:29;;;;;;;6.25;4.72;;;;;;;;;;4961194;28;20434;-83
2021/09/12 13:48:56;;;;;;;5.07;4.68;;;;;;;;;;4958730;28;20444;-84
2021/09/12 13:51:23;;;;;;;5.63;4.43;;;;;;;;;;4960710;28;20421;-84
2021/09/12 13:53:50;;;;;;;5.78;4.47;;;;;;;;;;4959096;28;20430;-84
2021/09/12 13:56:19;;;;;;;5.60;5.05;;;;;;;;;;4961199;28;20981;-84
2021/09/12 13:58:46;;;;;;;6.10;5.00;;;;;;;;;;4962445;28;20411;-85
2021/09/12 14:01:12;;;;;;;5.13;4.68;;;;;;;;;;4958097;28;20422;-83
2021/09/12 14:03:39;;;;;;;4.75;4.35;;;;;;;;;;4963124;28;20414;-85
2021/09/12 14:06:06;;;;;;;5.20;4.80;;;;;;;;;;4966452;28;20430;-83
2021/09/12 14:08:33;;;;;;;5.90;4.60;;;;;;;;;;4965842;28;20410;-84
2021/09/12 14:11:00;;;;;;;5.95;4.90;;;;;;;;;;4968752;28;20492;-84
2021/09/12 14:13:30;;;;;;;4.95;4.45;;;;;;;;;;4968746;28;20448;-84
2021/09/12 14:15:57;;;;;;;5.28;4.78;;;;;;;;;;4970884;28;20412;-84
2021/09/12 14:18:24;;;;;;;5.40;4.43;;;;;;;;;;4966102;28;20445;-83
2021/09/12 14:20:52;;;;;;;5.95;4.53;;;;;;;;;;4974477;28;20445;-83
2021/09/12 14:23:19;;;;;;;5.00;4.60;;;;;;;;;;4979663;28;20410;-83
2021/09/12 14:25:46;;;;;;;5.15;4.65;;;;;;;;;;4981293;28;20394;-84
2021/09/12 14:28:13;;;;;;;5.03;4.47;;;;;;;;;;4979611;28;21151;-85
2021/09/12 14:30:42;;;;;;;4.88;4.47;;;;;;;;;;4963642;28;20437;-82
2021/09/12 14:33:09;;;;;;;5.05;4.47;;;;;;;;;;4964828;28;20425;-85
2021/09/12 14:35:38;;;;;;;5.50;4.78;;;;;;;;;;4965517;28;20497;-83